createdAt,value
2022-07-30T00:01:50.454Z,23.65
2022-07-30T00:04:18.177Z,23.64
2022-07-30T00:06:45.912Z,23.64
2022-07-30T00:09:13.908Z,23.64
2022-07-30T00:11:41.643Z,23.64
2022-07-30T00:14:09.355Z,23.64
2022-07-30T00:16:38.546Z,23.63
2022-07-30T00:19:06.983Z,23.63
2022-07-30T00:24:01.567Z,23.61
2022-07-30T00:26:29.946Z,23.59
2022-07-30T00:28:57.668Z,23.59
2022-07-30T00:31:25.391Z,23.60
2022-07-30T00:33:54.435Z,23.60
2022-07-30T00:36:22.168Z,23.55
2022-07-30T00:38:49.898Z,23.59
2022-07-30T00:41:17.638Z,23.17
2022-07-30T00:43:46.708Z,23.58
2022-07-30T00:46:14.863Z,23.54
2022-07-30T00:48:42.757Z,23.35
2022-07-30T00:51:11.874Z,23.54
2022-07-30T00:53:39.591Z,23.53
2022-07-30T00:56:07.569Z,23.31
2022-07-30T00:58:35.303Z,23.50
2022-07-30T01:01:03.079Z,23.49
2022-07-30T01:03:30.785Z,23.50
2022-07-30T01:05:58.521Z,23.49
2022-07-30T01:08:27.601Z,23.49
2022-07-30T01:10:55.377Z,23.48
2022-07-30T01:13:23.749Z,23.46
2022-07-30T01:15:51.500Z,23.47
2022-07-30T01:18:19.217Z,23.14
2022-07-30T01:21:01.738Z,23.46
2022-07-30T01:23:33.774Z,23.46
2022-07-30T01:26:03.857Z,23.44
2022-07-30T01:28:32.051Z,23.42
2022-07-30T01:30:59.801Z,23.42
2022-07-30T01:33:27.523Z,23.43
2022-07-30T01:35:55.428Z,23.39
2022-07-30T01:38:25.062Z,23.38
2022-07-30T01:40:53.329Z,23.41
2022-07-30T01:43:22.987Z,22.98
2022-07-30T01:45:50.937Z,23.40
2022-07-30T01:48:19.740Z,23.18
2022-07-30T01:50:48.054Z,23.39
2022-07-30T01:53:16.757Z,23.14
2022-07-30T01:55:44.507Z,23.23
2022-07-30T01:58:12.312Z,22.92
2022-07-30T02:00:41.876Z,23.38
2022-07-30T02:03:09.665Z,23.05
2022-07-30T02:05:38.236Z,23.36
2022-07-30T02:08:09.410Z,23.06
2022-07-30T02:10:43.564Z,23.30
2022-07-30T02:13:11.720Z,23.35
2022-07-30T02:15:43.908Z,23.35
2022-07-30T02:18:14.524Z,23.34
2022-07-30T02:20:44.938Z,22.90
2022-07-30T02:23:16.588Z,23.33
2022-07-30T02:25:48.345Z,23.33
2022-07-30T02:28:16.224Z,23.32
2022-07-30T02:30:47.198Z,23.32
2022-07-30T02:33:15.074Z,23.28
2022-07-30T02:35:42.831Z,23.31
2022-07-30T02:38:10.994Z,23.19
2022-07-30T02:40:39.623Z,23.30
2022-07-30T02:43:07.314Z,23.28
2022-07-30T02:45:35.035Z,23.28
2022-07-30T02:48:06.595Z,22.98
2022-07-30T02:50:34.596Z,23.27
2022-07-30T02:53:02.660Z,23.28
2022-07-30T02:55:32.277Z,23.27
2022-07-30T02:58:00.006Z,23.26
2022-07-30T03:00:27.990Z,22.83
2022-07-30T03:02:56.903Z,22.82
2022-07-30T03:05:26.470Z,23.23
2022-07-30T03:07:54.989Z,23.21
2022-07-30T03:10:22.691Z,23.12
2022-07-30T03:12:50.411Z,23.24
2022-07-30T03:15:18.120Z,23.24
2022-07-30T03:17:47.742Z,23.24
2022-07-30T03:20:17.842Z,22.85
2022-07-30T03:22:48.099Z,23.19
2022-07-30T03:25:17.837Z,23.20
2022-07-30T03:27:45.552Z,23.19
2022-07-30T03:30:13.929Z,22.76
2022-07-30T03:32:42.922Z,23.18
2022-07-30T03:35:17.065Z,23.16
2022-07-30T03:37:46.651Z,23.16
2022-07-30T03:40:14.544Z,23.10
2022-07-30T03:42:42.277Z,23.12
2022-07-30T03:45:10.888Z,23.08
2022-07-30T03:47:39.809Z,23.05
2022-07-30T03:50:07.964Z,23.14
2022-07-30T03:52:35.834Z,23.12
2022-07-30T03:55:06.227Z,23.09
2022-07-30T03:57:33.981Z,23.12
2022-07-30T04:00:02.137Z,22.77
2022-07-30T04:02:29.877Z,23.10
2022-07-30T04:04:57.572Z,23.08
2022-07-30T04:07:25.304Z,23.10
2022-07-30T04:09:52.997Z,23.11
2022-07-30T04:12:22.084Z,23.09
2022-07-30T04:14:49.788Z,23.09
2022-07-30T04:17:19.910Z,23.09
2022-07-30T04:19:49.119Z,23.04
2022-07-30T04:22:17.406Z,22.94
2022-07-30T04:24:45.293Z,23.06
2022-07-30T04:27:13.031Z,22.76
2022-07-30T04:29:42.207Z,23.05
2022-07-30T04:32:10.400Z,23.05
2022-07-30T04:34:38.103Z,23.04
2022-07-30T04:37:05.841Z,23.03
2022-07-30T04:39:33.564Z,23.04
2022-07-30T04:42:01.480Z,23.06
2022-07-30T04:44:29.219Z,23.03
2022-07-30T04:47:01.488Z,23.03
2022-07-30T04:49:29.596Z,23.03
2022-07-30T04:51:57.346Z,23.02
2022-07-30T04:54:25.481Z,23.01
2022-07-30T04:56:54.724Z,22.99
2022-07-30T04:59:24.918Z,23.00
2022-07-30T05:01:52.793Z,23.00
2022-07-30T05:04:21.920Z,23.01
2022-07-30T05:06:49.663Z,23.01
2022-07-30T05:09:17.391Z,23.00
2022-07-30T05:11:51.420Z,22.77
2022-07-30T05:14:19.135Z,22.98
2022-07-30T05:16:46.906Z,22.72
2022-07-30T05:19:14.731Z,22.99
2022-07-30T05:21:43.808Z,23.00
2022-07-30T05:24:11.512Z,22.97
2022-07-30T05:26:39.258Z,22.98
2022-07-30T05:29:08.129Z,22.86
2022-07-30T05:31:38.048Z,22.98
2022-07-30T05:34:05.941Z,22.98
2022-07-30T05:36:33.716Z,22.97
2022-07-30T05:39:02.792Z,22.97
2022-07-30T05:41:32.095Z,22.86
2022-07-30T05:44:01.124Z,22.98
2022-07-30T05:46:29.041Z,22.97
2022-07-30T05:48:56.808Z,22.97
2022-07-30T05:51:24.606Z,22.94
2022-07-30T05:53:52.356Z,22.97
2022-07-30T05:56:21.445Z,22.88
2022-07-30T05:58:49.173Z,22.96
2022-07-30T06:01:16.982Z,22.99
2022-07-30T06:03:44.711Z,22.98
2022-07-30T06:06:12.453Z,22.99
2022-07-30T06:08:40.202Z,22.91
2022-07-30T06:11:08.928Z,23.01
2022-07-30T06:13:38.257Z,23.00
2022-07-30T06:16:06.496Z,23.00
2022-07-30T06:18:34.266Z,22.69
2022-07-30T06:21:02.006Z,22.99
2022-07-30T06:23:29.729Z,23.00
2022-07-30T06:25:57.469Z,23.00
2022-07-30T06:28:37.612Z,23.00
2022-07-30T06:31:07.874Z,22.98
2022-07-30T06:33:35.650Z,23.02
2022-07-30T06:36:03.378Z,23.00
2022-07-30T06:38:31.147Z,23.04
2022-07-30T06:41:02.376Z,23.04
2022-07-30T06:43:30.796Z,23.04
2022-07-30T06:45:58.529Z,23.05
2022-07-30T06:48:27.868Z,23.05
2022-07-30T06:50:55.583Z,23.05
2022-07-30T06:53:23.303Z,23.05
2022-07-30T06:55:51.240Z,23.06
2022-07-30T06:58:25.421Z,23.05
2022-07-30T07:00:53.530Z,23.04
2022-07-30T07:03:21.445Z,23.03
2022-07-30T07:05:50.502Z,22.63
2022-07-30T07:08:18.572Z,23.03
2022-07-30T07:10:46.302Z,23.03
2022-07-30T07:13:14.023Z,22.64
2022-07-30T07:15:41.742Z,23.04
2022-07-30T07:18:09.534Z,23.04
2022-07-30T07:20:37.248Z,23.05
2022-07-30T07:23:09.352Z,23.05
2022-07-30T07:25:39.927Z,23.03
2022-07-30T07:28:12.127Z,23.07
2022-07-30T07:30:41.276Z,23.05
2022-07-30T07:33:09.201Z,23.06
2022-07-30T07:35:48.769Z,23.10
2022-07-30T07:38:18.994Z,22.78
2022-07-30T07:40:47.157Z,23.12
2022-07-30T07:43:15.060Z,23.12
2022-07-30T07:45:43.005Z,23.14
2022-07-30T07:48:10.796Z,23.12
2022-07-30T07:50:38.485Z,23.17
2022-07-30T07:53:06.551Z,23.17
2022-07-30T07:55:35.802Z,23.16
2022-07-30T07:58:03.625Z,23.06
2022-07-30T08:00:31.937Z,22.85
2022-07-30T08:02:59.666Z,23.19
2022-07-30T08:06:00.794Z,23.18
2022-07-30T08:08:15.315Z,23.20
2022-07-30T08:10:44.368Z,23.21
2022-07-30T08:13:48.564Z,23.24
2022-07-30T08:15:59.870Z,23.25
2022-07-30T08:18:27.595Z,23.26
2022-07-30T08:20:55.504Z,23.27
2022-07-30T08:23:24.436Z,23.24
2022-07-30T08:25:53.488Z,23.32
2022-07-30T08:28:36.576Z,23.33
2022-07-30T08:31:04.668Z,23.06
2022-07-30T08:33:32.412Z,23.40
2022-07-30T08:36:04.037Z,23.42
2022-07-30T08:38:32.232Z,23.47
2022-07-30T08:41:01.336Z,23.51
2022-07-30T08:43:29.084Z,23.55
2022-07-30T08:45:56.965Z,23.60
2022-07-30T08:48:24.698Z,23.36
2022-07-30T08:50:52.404Z,23.67
2022-07-30T08:53:20.159Z,23.73
2022-07-30T08:55:47.868Z,23.76
2022-07-30T08:58:23.600Z,23.79
2022-07-30T09:00:51.354Z,23.81
2022-07-30T09:03:19.122Z,23.84
2022-07-30T09:05:46.817Z,23.88
2022-07-30T09:08:14.556Z,23.85
2022-07-30T09:10:52.788Z,23.95
2022-07-30T09:13:26.424Z,23.99
2022-07-30T09:15:54.283Z,23.60
2022-07-30T09:18:29.547Z,24.03
2022-07-30T09:20:57.437Z,24.05
2022-07-30T09:23:25.178Z,24.06
2022-07-30T09:25:53.030Z,24.07
2022-07-30T09:28:30.725Z,24.09
2022-07-30T09:30:58.592Z,24.07
2022-07-30T09:33:34.055Z,24.08
2022-07-30T09:36:02.259Z,24.07
2022-07-30T09:38:29.983Z,24.07
2022-07-30T09:41:02.049Z,24.07
2022-07-30T09:43:44.602Z,24.06
2022-07-30T09:46:12.460Z,24.05
2022-07-30T09:48:40.251Z,24.06
2022-07-30T09:51:15.887Z,24.05
2022-07-30T09:53:57.638Z,24.06
2022-07-30T09:56:26.207Z,24.06
2022-07-30T09:58:55.391Z,24.06
2022-07-30T10:01:24.511Z,24.06
2022-07-30T10:04:12.217Z,24.07
2022-07-30T10:06:42.024Z,23.78
2022-07-30T10:09:14.222Z,24.08
2022-07-30T10:11:44.708Z,24.08
2022-07-30T10:14:13.792Z,24.09
2022-07-30T10:16:41.564Z,24.10
2022-07-30T10:19:18.015Z,24.10
2022-07-30T10:21:48.047Z,24.11
2022-07-30T10:24:17.674Z,24.13
2022-07-30T10:26:55.726Z,24.16
2022-07-30T10:29:33.564Z,24.20
2022-07-30T10:32:01.936Z,24.23
2022-07-30T10:34:34.234Z,24.26
2022-07-30T10:37:04.493Z,24.27
2022-07-30T10:39:35.548Z,24.28
2022-07-30T10:42:10.924Z,24.31
2022-07-30T10:44:52.786Z,24.19
2022-07-30T10:47:20.512Z,24.30
2022-07-30T10:50:11.894Z,23.87
2022-07-30T10:52:47.110Z,24.30
2022-07-30T10:55:15.759Z,24.00
2022-07-30T10:58:00.383Z,24.30
2022-07-30T11:00:29.705Z,24.28
2022-07-30T11:03:20.220Z,24.15
2022-07-30T11:05:51.344Z,23.96
2022-07-30T11:08:42.793Z,24.32
2022-07-30T11:12:01.978Z,24.34
2022-07-30T11:14:56.343Z,24.36
2022-07-30T11:17:25.435Z,24.36
2022-07-30T11:20:11.918Z,24.38
2022-07-30T11:22:40.624Z,24.05
2022-07-30T11:25:13.016Z,24.29
2022-07-30T11:27:42.111Z,24.41
2022-07-30T11:30:33.761Z,24.42
2022-07-30T11:33:32.154Z,24.42
2022-07-30T11:36:11.925Z,24.41
2022-07-30T11:38:57.981Z,24.14
2022-07-30T11:41:28.957Z,24.45
2022-07-30T11:44:28.575Z,24.51
2022-07-30T11:46:56.375Z,24.49
2022-07-30T11:49:25.504Z,24.50
2022-07-30T11:51:53.228Z,24.50
2022-07-30T11:54:20.986Z,24.49
2022-07-30T11:56:52.419Z,24.50
2022-07-30T11:59:20.148Z,24.49
2022-07-30T12:01:51.230Z,24.48
2022-07-30T12:04:19.041Z,24.48
2022-07-30T12:06:48.608Z,24.47
2022-07-30T12:09:22.706Z,24.42
2022-07-30T12:11:50.466Z,24.45
2022-07-30T12:14:18.227Z,24.46
2022-07-30T12:16:50.761Z,24.45
2022-07-30T12:19:18.472Z,24.45
2022-07-30T12:21:49.560Z,24.44
2022-07-30T12:24:25.510Z,24.45
2022-07-30T12:26:53.208Z,24.16
2022-07-30T12:29:20.964Z,24.46
2022-07-30T12:31:48.646Z,24.27
2022-07-30T12:34:23.136Z,24.49
2022-07-30T12:36:51.020Z,24.48
2022-07-30T12:39:24.862Z,24.43
2022-07-30T12:41:53.289Z,24.46
2022-07-30T12:44:40.686Z,24.49
2022-07-30T12:47:20.330Z,24.49
2022-07-30T12:49:49.679Z,24.48
2022-07-30T12:52:28.155Z,24.47
2022-07-30T12:55:05.903Z,24.47
2022-07-30T12:57:52.802Z,24.48
2022-07-30T13:00:20.609Z,24.38
2022-07-30T13:02:48.549Z,24.45
2022-07-30T13:05:16.307Z,24.45
2022-07-30T13:07:57.228Z,24.46
2022-07-30T13:10:30.895Z,24.45
2022-07-30T13:12:59.340Z,24.45
2022-07-30T13:15:27.391Z,24.45
2022-07-30T13:17:55.156Z,24.43
2022-07-30T13:20:22.959Z,24.46
2022-07-30T13:22:50.781Z,24.47
2022-07-30T13:25:18.514Z,24.46
2022-07-30T13:27:48.385Z,24.44
2022-07-30T13:30:16.145Z,24.47
2022-07-30T13:32:43.854Z,24.46
2022-07-30T13:35:11.597Z,24.46
2022-07-30T13:37:39.310Z,24.46
2022-07-30T13:40:08.030Z,24.47
2022-07-30T13:42:35.855Z,24.47
2022-07-30T13:45:05.455Z,24.47
2022-07-30T13:47:33.166Z,24.45
2022-07-30T13:50:00.958Z,24.46
2022-07-30T13:52:28.795Z,24.45
2022-07-30T13:54:56.510Z,24.45
2022-07-30T13:57:24.198Z,24.44
2022-07-30T13:59:52.639Z,24.43
2022-07-30T14:02:21.667Z,24.43
2022-07-30T14:04:49.395Z,24.43
2022-07-30T14:07:17.472Z,24.42
2022-07-30T14:09:46.098Z,24.43
2022-07-30T14:12:15.580Z,24.43
2022-07-30T14:14:43.295Z,24.38
2022-07-30T14:17:11.356Z,24.42
2022-07-30T14:19:40.421Z,24.42
2022-07-30T14:22:08.129Z,24.41
2022-07-30T14:24:35.899Z,24.34
2022-07-30T14:27:04.018Z,24.41
2022-07-30T14:29:32.090Z,24.41
2022-07-30T14:31:59.784Z,24.40
2022-07-30T14:34:28.202Z,24.40
2022-07-30T14:36:57.408Z,24.41
2022-07-30T14:39:25.987Z,24.41
2022-07-30T14:41:55.735Z,24.41
2022-07-30T14:44:23.588Z,24.37
2022-07-30T14:46:52.307Z,24.38
2022-07-30T14:49:20.636Z,24.38
2022-07-30T14:51:48.393Z,24.39
2022-07-30T14:54:17.462Z,24.40
2022-07-30T14:56:45.158Z,24.40
2022-07-30T14:59:12.889Z,24.39
2022-07-30T15:01:41.888Z,24.39
2022-07-30T15:04:11.518Z,24.39
2022-07-30T15:06:40.788Z,24.39
2022-07-30T15:09:08.646Z,24.38
2022-07-30T15:12:04.233Z,24.38
2022-07-30T15:14:26.978Z,24.36
2022-07-30T15:16:59.385Z,24.38
2022-07-30T15:19:31.120Z,24.37
2022-07-30T15:21:59.092Z,24.38
2022-07-30T15:24:27.053Z,24.36
2022-07-30T15:26:56.678Z,24.34
2022-07-30T15:29:27.240Z,24.36
2022-07-30T15:31:55.259Z,24.36
2022-07-30T15:34:23.045Z,24.35
2022-07-30T15:36:50.736Z,24.36
2022-07-30T15:39:18.452Z,24.36
2022-07-30T15:41:46.151Z,24.33
2022-07-30T15:44:15.211Z,24.36
2022-07-30T15:46:42.908Z,24.35
2022-07-30T15:49:11.019Z,24.35
2022-07-30T15:51:43.790Z,24.37
2022-07-30T15:54:11.507Z,24.35
2022-07-30T15:56:39.214Z,24.37
2022-07-30T15:59:07.261Z,24.35
2022-07-30T16:01:36.344Z,24.36
2022-07-30T16:04:04.403Z,24.36
2022-07-30T16:06:32.486Z,24.38
2022-07-30T16:09:00.219Z,24.41
2022-07-30T16:11:27.929Z,24.45
2022-07-30T16:14:00.246Z,24.50
2022-07-30T16:16:27.934Z,24.53
2022-07-30T16:18:56.972Z,24.59
2022-07-30T16:21:24.692Z,24.64
2022-07-30T16:23:53.662Z,24.70
2022-07-30T16:26:21.656Z,24.73
2022-07-30T16:28:49.372Z,24.75
2022-07-30T16:31:17.083Z,24.75
2022-07-30T16:33:44.960Z,24.77
2022-07-30T16:36:14.298Z,24.76
2022-07-30T16:38:42.083Z,24.73
2022-07-30T16:41:13.385Z,24.71
2022-07-30T16:43:41.631Z,24.72
2022-07-30T16:46:10.941Z,24.72
2022-07-30T16:48:38.703Z,24.69
2022-07-30T16:51:06.971Z,24.69
2022-07-30T16:53:37.629Z,24.65
2022-07-30T16:56:05.990Z,24.64
2022-07-30T16:58:33.697Z,24.64
2022-07-30T17:01:01.581Z,24.63
2022-07-30T17:03:29.330Z,24.62
2022-07-30T17:05:57.043Z,24.61
2022-07-30T17:08:25.453Z,24.61
2022-07-30T17:10:54.686Z,24.62
2022-07-30T17:13:24.953Z,24.62
2022-07-30T17:15:52.669Z,24.62
2022-07-30T17:18:20.361Z,24.65
2022-07-30T17:20:48.084Z,24.67
2022-07-30T17:23:15.780Z,24.66
2022-07-30T17:25:43.500Z,24.65
2022-07-30T17:28:12.522Z,24.64
2022-07-30T17:30:40.250Z,24.65
2022-07-30T17:33:07.955Z,24.65
2022-07-30T17:35:35.685Z,24.64
2022-07-30T17:38:03.386Z,24.64
2022-07-30T17:40:31.962Z,24.63
2022-07-30T17:43:03.727Z,24.64
2022-07-30T17:45:33.410Z,24.63
2022-07-30T17:48:01.635Z,24.63
2022-07-30T17:50:29.684Z,24.62
2022-07-30T17:52:57.433Z,24.62
2022-07-30T17:55:25.310Z,24.61
2022-07-30T17:57:53.012Z,24.60
2022-07-30T18:00:20.754Z,24.59
2022-07-30T18:02:49.792Z,24.59
2022-07-30T18:05:17.521Z,24.58
2022-07-30T18:07:45.241Z,23.91
2022-07-30T18:10:13.174Z,24.19
2022-07-30T18:12:48.413Z,24.59
2022-07-30T18:15:16.476Z,24.57
2022-07-30T18:17:44.174Z,24.20
2022-07-30T18:20:13.483Z,24.57
2022-07-30T18:22:41.217Z,24.56
2022-07-30T18:25:18.015Z,24.55
2022-07-30T18:27:47.071Z,24.53
2022-07-30T18:30:14.944Z,24.53
2022-07-30T18:32:42.668Z,24.54
2022-07-30T18:35:14.095Z,24.52
2022-07-30T18:37:44.313Z,24.44
2022-07-30T18:40:13.388Z,24.51
2022-07-30T18:42:41.162Z,24.49
2022-07-30T18:45:10.310Z,24.48
2022-07-30T18:47:38.012Z,24.47
2022-07-30T18:50:06.587Z,24.47
2022-07-30T18:52:34.552Z,24.45
2022-07-30T18:55:03.650Z,24.43
2022-07-30T18:57:31.354Z,24.42
2022-07-30T18:59:59.079Z,24.43
2022-07-30T19:02:26.796Z,24.40
2022-07-30T19:04:54.662Z,24.39
2022-07-30T19:07:23.379Z,24.38
2022-07-30T19:09:55.347Z,24.32
2022-07-30T19:12:24.418Z,24.31
2022-07-30T19:14:52.161Z,24.33
2022-07-30T19:17:20.043Z,24.33
2022-07-30T19:19:47.825Z,24.32
2022-07-30T19:22:15.781Z,24.31
2022-07-30T19:24:43.501Z,24.30
2022-07-30T19:27:14.315Z,24.29
2022-07-30T19:29:44.886Z,24.29
2022-07-30T19:32:12.637Z,24.27
2022-07-30T19:34:41.006Z,24.25
2022-07-30T19:37:08.715Z,24.25
2022-07-30T19:39:36.435Z,24.25
2022-07-30T19:42:04.504Z,24.25
2022-07-30T19:44:32.422Z,24.24
2022-07-30T19:47:01.484Z,24.24
2022-07-30T19:49:29.602Z,24.23
2022-07-30T19:52:09.954Z,24.21
2022-07-30T19:54:45.302Z,24.20
2022-07-30T19:57:13.146Z,24.19
2022-07-30T19:59:49.434Z,24.18
2022-07-30T20:02:35.395Z,24.17
2022-07-30T20:05:03.919Z,24.17
2022-07-30T20:07:33.970Z,24.17
2022-07-30T20:10:03.389Z,24.16
2022-07-30T20:12:31.102Z,24.16
2022-07-30T20:14:58.865Z,24.14
2022-07-30T20:17:27.451Z,24.13
2022-07-30T20:19:58.004Z,24.12
2022-07-30T20:22:28.996Z,24.11
2022-07-30T20:24:56.991Z,24.09
2022-07-30T20:27:35.995Z,23.82
2022-07-30T20:30:13.180Z,24.08
2022-07-30T20:32:44.772Z,23.72
2022-07-30T20:35:16.034Z,24.06
2022-07-30T20:37:55.626Z,24.05
2022-07-30T20:40:24.605Z,23.93
2022-07-30T20:42:54.740Z,24.02
2022-07-30T20:48:16.914Z,24.00
2022-07-30T20:50:49.315Z,23.99
2022-07-30T20:53:17.176Z,23.73
2022-07-30T20:55:44.916Z,23.96
2022-07-30T20:58:17.483Z,23.96
2022-07-30T21:00:49.992Z,23.96
2022-07-30T21:03:18.943Z,23.94
2022-07-30T21:05:51.205Z,23.20
2022-07-30T21:08:21.308Z,23.91
2022-07-30T21:10:53.203Z,23.91
2022-07-30T21:13:22.974Z,23.91
2022-07-30T21:16:02.811Z,23.88
2022-07-30T21:18:31.492Z,23.87
2022-07-30T21:21:04.854Z,23.88
2022-07-30T21:23:33.472Z,23.87
2022-07-30T21:26:05.800Z,23.87
2022-07-30T21:28:35.840Z,23.85
2022-07-30T21:31:04.090Z,23.73
2022-07-30T21:33:35.318Z,23.83
2022-07-30T21:36:04.579Z,23.83
2022-07-30T21:38:34.400Z,23.83
2022-07-30T21:41:02.187Z,23.83
2022-07-30T21:43:30.531Z,23.81
2022-07-30T21:46:03.795Z,23.77
2022-07-30T21:48:34.317Z,23.81
2022-07-30T21:51:02.048Z,23.80
2022-07-30T21:53:44.768Z,23.80
2022-07-30T21:56:14.159Z,23.79
2022-07-30T21:58:42.279Z,23.78
2022-07-30T22:01:17.811Z,23.79
2022-07-30T22:04:03.923Z,23.80
2022-07-30T22:06:34.405Z,23.78
2022-07-30T22:09:09.925Z,23.77
2022-07-30T22:11:47.553Z,23.76
2022-07-30T22:14:15.789Z,23.75
2022-07-30T22:16:45.927Z,23.75
2022-07-30T22:19:14.696Z,23.75
2022-07-30T22:21:42.833Z,23.75
2022-07-30T22:24:29.638Z,23.75
2022-07-30T22:26:59.840Z,23.72
2022-07-30T22:29:27.895Z,23.72
2022-07-30T22:32:02.992Z,23.70
2022-07-30T22:34:31.210Z,23.71
2022-07-30T22:36:58.929Z,23.71
2022-07-30T22:39:50.329Z,23.70
2022-07-30T22:42:16.097Z,23.67
2022-07-30T22:44:45.675Z,23.65
2022-07-30T22:47:21.259Z,23.66
2022-07-30T22:49:55.368Z,23.65
2022-07-30T22:52:25.461Z,23.64
2022-07-30T22:55:04.652Z,23.65
2022-07-30T22:57:38.155Z,23.63
2022-07-30T23:00:10.861Z,23.66
2022-07-30T23:02:39.652Z,23.66
2022-07-30T23:05:08.051Z,23.63
2022-07-30T23:07:39.924Z,23.39
2022-07-30T23:10:16.986Z,23.61
2022-07-30T23:12:18.424Z,24.02
2022-07-30T23:12:47.381Z,23.10
2022-07-30T23:15:15.331Z,23.59
2022-07-30T23:17:43.546Z,23.58
2022-07-30T23:20:13.178Z,23.57
2022-07-30T23:22:40.890Z,23.57
2022-07-30T23:25:11.292Z,23.57
2022-07-30T23:27:39.289Z,23.56
2022-07-30T23:30:08.439Z,23.55
2022-07-30T23:32:36.713Z,23.55
2022-07-30T23:35:04.940Z,23.54
2022-07-30T23:37:47.585Z,23.53
2022-07-30T23:40:18.758Z,23.53
2022-07-30T23:42:46.873Z,23.53
2022-07-30T23:45:14.616Z,23.51
2022-07-30T23:47:52.149Z,23.51
2022-07-30T23:50:30.212Z,23.51
2022-07-30T23:52:57.996Z,23.51
2022-07-30T23:55:28.081Z,23.49
2022-07-30T23:57:55.913Z,23.46
